createdAt,value
2022-12-25T00:03:05.972Z,101273.44
2022-12-25T00:07:05.357Z,101274.47
2022-12-25T00:11:05.791Z,101280.16
2022-12-25T00:15:04.473Z,101290.31
2022-12-25T00:19:05.954Z,101303.94
2022-12-25T00:23:05.104Z,101306.75
2022-12-25T00:27:04.282Z,101303.84
2022-12-25T00:31:06.256Z,101305.44
2022-12-25T00:35:07.458Z,101304.31
2022-12-25T00:39:06.998Z,101306.91
2022-12-25T00:43:06.256Z,101309.94
2022-12-25T00:47:05.593Z,101304.81
2022-12-25T00:51:09.112Z,101309.94
2022-12-25T00:55:08.671Z,101313.34
2022-12-25T00:59:07.790Z,101326.19
2022-12-25T01:03:06.955Z,101329.75
2022-12-25T01:07:07.718Z,101331.25
2022-12-25T01:11:07.964Z,101316.41
2022-12-25T01:15:08.073Z,101311.84
2022-12-25T01:19:07.283Z,101322.16
2022-12-25T01:23:08.727Z,101324.72
2022-12-25T01:27:07.962Z,101330.03
2022-12-25T01:31:07.535Z,101321.53
2022-12-25T01:35:06.527Z,101326.72
2022-12-25T01:39:07.866Z,101330.06
2022-12-25T01:43:11.498Z,101328.22
2022-12-25T01:47:15.258Z,101338.81
2022-12-25T01:51:22.488Z,101335.97
2022-12-25T01:55:23.998Z,101350.47
2022-12-25T01:59:25.107Z,101341.75
2022-12-25T02:03:24.444Z,101330.59
2022-12-25T02:07:25.029Z,101333.03
2022-12-25T02:11:42.777Z,101337.28
2022-12-25T02:15:45.607Z,101330.25
2022-12-25T02:20:04.465Z,101332.81
2022-12-25T02:24:28.645Z,101337.13
2022-12-25T02:28:32.175Z,101343.31
2022-12-25T02:32:33.162Z,101358.94
2022-12-25T02:36:34.882Z,101355.31
2022-12-25T02:40:39.904Z,101349.31
2022-12-25T02:44:59.420Z,101347.66
2022-12-25T02:49:17.087Z,101356.41
2022-12-25T02:53:32.669Z,101348.69
2022-12-25T02:57:59.231Z,101343.91
2022-12-25T03:02:17.423Z,101339.78
2022-12-25T03:06:45.463Z,101338.72
2022-12-25T03:11:04.218Z,101347.44
2022-12-25T03:15:23.054Z,101353.88
2022-12-25T03:19:41.831Z,101356.97
2022-12-25T03:23:58.997Z,101356.63
2022-12-25T03:27:59.135Z,101371.44
2022-12-25T03:32:02.713Z,101358.34
2022-12-25T03:36:08.610Z,101358.13
2022-12-25T03:40:29.155Z,101372.72
2022-12-25T03:44:51.054Z,101368.94
2022-12-25T03:49:10.135Z,101373.31
2022-12-25T03:53:29.976Z,101378.88
2022-12-25T03:57:45.664Z,101391.38
2022-12-25T04:02:01.249Z,101395.03
2022-12-25T04:06:16.643Z,101385.19
2022-12-25T04:10:34.525Z,101400.22
2022-12-25T04:15:01.433Z,101405.28
2022-12-25T04:19:16.573Z,101404.97
2022-12-25T04:23:32.210Z,101409.28
2022-12-25T04:27:49.892Z,101414.03
2022-12-25T04:32:04.953Z,101431.75
2022-12-25T04:36:13.057Z,101421.25
2022-12-25T04:40:12.043Z,101433.22
2022-12-25T04:44:13.286Z,101433.75
2022-12-25T04:48:12.463Z,101437.03
2022-12-25T04:52:11.597Z,101443.94
2022-12-25T04:56:10.792Z,101462.50
2022-12-25T05:00:12.997Z,101470.91
2022-12-25T05:04:12.150Z,101472.63
2022-12-25T05:08:11.312Z,101477.78
2022-12-25T05:12:10.578Z,101488.16
2022-12-25T05:16:14.289Z,101499.06
2022-12-25T05:20:13.616Z,101495.34
2022-12-25T05:24:12.794Z,101491.59
2022-12-25T05:28:11.441Z,101491.50
2022-12-25T05:32:12.752Z,101495.69
2022-12-25T05:36:12.988Z,101506.19
2022-12-25T05:40:12.782Z,101501.00
2022-12-25T05:44:11.952Z,101503.59
2022-12-25T05:48:13.641Z,101514.09
2022-12-25T05:52:12.899Z,101519.91
2022-12-25T05:56:12.073Z,101528.00
2022-12-25T06:00:11.533Z,101536.22
2022-12-25T06:04:13.379Z,101539.13
2022-12-25T06:08:12.592Z,101542.56
2022-12-25T06:12:11.926Z,101550.50
2022-12-25T06:16:13.052Z,101556.84
2022-12-25T06:20:14.512Z,101564.56
2022-12-25T06:24:19.319Z,101546.97
2022-12-25T06:28:20.630Z,101566.88
2022-12-25T06:32:19.852Z,101576.47
2022-12-25T06:36:22.277Z,101592.72
2022-12-25T06:40:21.765Z,101604.63
2022-12-25T06:44:20.946Z,101606.88
2022-12-25T06:48:19.633Z,101610.09
2022-12-25T06:52:20.950Z,101613.34
2022-12-25T06:56:21.022Z,101610.66
2022-12-25T07:00:20.920Z,101609.28
2022-12-25T07:04:23.031Z,101621.38
2022-12-25T07:08:23.866Z,101618.09
2022-12-25T07:12:24.003Z,101639.88
2022-12-25T07:16:23.413Z,101641.81
2022-12-25T07:20:24.916Z,101655.81
2022-12-25T07:24:26.391Z,101655.00
2022-12-25T07:28:25.631Z,101640.63
2022-12-25T07:32:24.776Z,101667.72
2022-12-25T07:36:23.995Z,101664.34
2022-12-25T07:40:25.256Z,101664.59
2022-12-25T07:44:24.486Z,101668.31
2022-12-25T07:48:23.759Z,101679.81
2022-12-25T07:52:22.941Z,101682.03
2022-12-25T07:56:24.371Z,101704.41
2022-12-25T08:00:31.353Z,101700.59
2022-12-25T08:04:30.653Z,101689.63
2022-12-25T08:08:29.872Z,101697.06
2022-12-25T08:12:31.219Z,101698.78
2022-12-25T08:16:30.387Z,101707.34
2022-12-25T08:20:29.638Z,101703.63
2022-12-25T08:24:28.906Z,101710.44
2022-12-25T08:28:30.671Z,101706.88
2022-12-25T08:32:29.817Z,101719.34
2022-12-25T08:36:29.097Z,101722.88
2022-12-25T08:40:28.292Z,101724.41
2022-12-25T08:44:29.832Z,101698.66
2022-12-25T08:48:29.111Z,101701.72
2022-12-25T08:52:29.837Z,101703.53
2022-12-25T08:56:32.322Z,101706.28
2022-12-25T09:00:33.816Z,101709.06
2022-12-25T09:04:33.106Z,101703.84
2022-12-25T09:08:32.417Z,101706.59
2022-12-25T09:12:31.628Z,101711.84
2022-12-25T09:16:33.084Z,101712.81
2022-12-25T09:20:33.640Z,101708.03
2022-12-25T09:24:32.427Z,101708.53
2022-12-25T09:28:31.933Z,101726.88
2022-12-25T09:32:32.791Z,101726.25
2022-12-25T09:36:32.048Z,101729.38
2022-12-25T09:40:32.389Z,101726.25
2022-12-25T09:44:34.127Z,101725.56
2022-12-25T09:48:37.165Z,101722.94
2022-12-25T09:52:39.070Z,101715.47
2022-12-25T09:56:38.498Z,101716.81
2022-12-25T10:00:40.115Z,101721.34
2022-12-25T10:04:52.776Z,101717.88
2022-12-25T10:08:58.251Z,101718.22
2022-12-25T10:13:02.557Z,101720.19
2022-12-25T10:17:12.522Z,101721.47
2022-12-25T10:21:15.254Z,101733.94
2022-12-25T10:25:17.468Z,101725.38
2022-12-25T10:29:19.143Z,101734.47
2022-12-25T10:33:23.818Z,101728.66
2022-12-25T10:37:26.756Z,101731.72
2022-12-25T10:41:33.919Z,101723.00
2022-12-25T10:45:33.234Z,101728.44
2022-12-25T10:49:34.147Z,101724.84
2022-12-25T10:53:40.522Z,101727.63
2022-12-25T10:57:46.585Z,101726.94
2022-12-25T11:01:46.119Z,101729.75
2022-12-25T11:05:51.444Z,101739.56
2022-12-25T11:09:55.400Z,101742.13
2022-12-25T11:13:58.723Z,101747.44
2022-12-25T11:17:58.084Z,101751.31
2022-12-25T11:21:58.782Z,101745.41
2022-12-25T11:26:01.625Z,101747.50
2022-12-25T11:30:02.885Z,101743.31
2022-12-25T11:34:05.252Z,101743.22
2022-12-25T11:38:05.188Z,101747.38
2022-12-25T11:42:10.399Z,101741.47
2022-12-25T11:46:13.844Z,101740.84
2022-12-25T11:50:20.067Z,101740.78
2022-12-25T11:54:22.407Z,101746.28
2022-12-25T11:58:26.728Z,101750.66
2022-12-25T12:02:31.702Z,101735.88
2022-12-25T12:06:34.611Z,101737.66
2022-12-25T12:10:42.425Z,101747.56
2022-12-25T12:14:49.361Z,101760.38
2022-12-25T12:18:50.808Z,101752.84
2022-12-25T12:22:54.847Z,101741.91
2022-12-25T12:27:02.849Z,101742.81
2022-12-25T12:31:05.533Z,101750.00
2022-12-25T12:35:15.252Z,101762.59
2022-12-25T12:39:22.620Z,101766.84
2022-12-25T12:43:30.614Z,101782.66
2022-12-25T12:47:33.839Z,101783.63
2022-12-25T12:51:34.599Z,101785.25
2022-12-25T12:55:36.465Z,101786.22
2022-12-25T12:59:39.983Z,101779.47
2022-12-25T13:04:07.259Z,101786.25
2022-12-25T13:08:13.487Z,101781.44
2022-12-25T13:12:14.677Z,101783.16
2022-12-25T13:16:21.771Z,101778.19
2022-12-25T13:20:25.700Z,101780.81
2022-12-25T13:24:25.774Z,101784.34
2022-12-25T13:28:29.647Z,101793.13
2022-12-25T13:32:30.588Z,101784.25
2022-12-25T13:36:36.471Z,101779.78
2022-12-25T13:40:35.940Z,101774.47
2022-12-25T13:44:42.587Z,101795.41
2022-12-25T13:48:42.003Z,101792.81
2022-12-25T13:52:43.791Z,101801.56
2022-12-25T13:56:48.240Z,101812.09
2022-12-25T14:00:49.478Z,101810.16
2022-12-25T14:04:48.854Z,101813.50
2022-12-25T14:08:50.769Z,101817.84
2022-12-25T14:12:51.310Z,101829.91
2022-12-25T14:16:53.019Z,101827.88
2022-12-25T14:21:04.135Z,101831.38
2022-12-25T14:25:15.145Z,101832.94
2022-12-25T14:29:21.401Z,101845.19
2022-12-25T14:33:24.729Z,101841.72
2022-12-25T14:37:26.093Z,101845.31
2022-12-25T14:41:37.378Z,101852.19
2022-12-25T14:45:40.506Z,101852.06
2022-12-25T14:49:40.191Z,101850.06
2022-12-25T14:53:41.594Z,101856.06
2022-12-25T14:57:48.065Z,101872.44
2022-12-25T15:01:51.316Z,101867.94
2022-12-25T15:05:59.340Z,101878.25
2022-12-25T15:10:27.078Z,101871.84
2022-12-25T15:14:20.259Z,101870.47
2022-12-25T15:18:19.828Z,101878.94
2022-12-25T15:22:19.075Z,101874.56
2022-12-25T15:26:18.394Z,101882.41
2022-12-25T15:30:19.447Z,101886.84
2022-12-25T15:34:20.657Z,101883.00
2022-12-25T15:38:19.984Z,101904.72
2022-12-25T15:42:20.900Z,101900.25
2022-12-25T15:46:24.150Z,101890.50
2022-12-25T15:50:23.583Z,101899.28
2022-12-25T15:54:22.374Z,101899.91
2022-12-25T15:58:21.594Z,101915.69
2022-12-25T16:02:23.122Z,101903.94
2022-12-25T16:06:22.413Z,101909.44
2022-12-25T16:10:22.350Z,101911.41
2022-12-25T16:14:21.586Z,101907.19
2022-12-25T16:18:24.021Z,101920.00
2022-12-25T16:22:25.268Z,101927.44
2022-12-25T16:26:24.516Z,101912.22
2022-12-25T16:30:23.777Z,101915.69
2022-12-25T16:34:24.624Z,101927.97
2022-12-25T16:38:23.857Z,101922.09
2022-12-25T16:42:23.124Z,101931.88
2022-12-25T16:46:23.360Z,101929.94
2022-12-25T16:50:24.759Z,101936.75
2022-12-25T16:54:24.090Z,101925.88
2022-12-25T16:58:22.877Z,101933.53
2022-12-25T17:02:23.125Z,101939.91
2022-12-25T17:06:26.360Z,101941.84
2022-12-25T17:10:25.597Z,101948.78
2022-12-25T17:14:24.880Z,101962.44
2022-12-25T17:18:24.112Z,101966.06
2022-12-25T17:22:25.224Z,101973.97
2022-12-25T17:26:24.539Z,101972.91
2022-12-25T17:30:23.748Z,101976.94
2022-12-25T17:34:23.033Z,101970.59
2022-12-25T17:38:24.384Z,101972.84
2022-12-25T17:42:23.575Z,101985.00
2022-12-25T17:46:23.162Z,101983.34
2022-12-25T17:50:25.041Z,101989.59
2022-12-25T17:54:26.493Z,101994.00
2022-12-25T17:58:25.802Z,101990.91
2022-12-25T18:02:25.305Z,101999.78
2022-12-25T18:06:25.525Z,102009.44
2022-12-25T18:10:26.842Z,102015.22
2022-12-25T18:14:26.113Z,102018.44
2022-12-25T18:18:25.358Z,102027.38
2022-12-25T18:22:24.557Z,102035.22
2022-12-25T18:26:28.379Z,102027.28
2022-12-25T18:30:27.677Z,102021.53
2022-12-25T18:34:27.006Z,102020.53
2022-12-25T18:38:26.301Z,102034.31
2022-12-25T18:42:45.809Z,102026.91
2022-12-25T18:46:45.068Z,102014.63
2022-12-25T18:50:44.145Z,102020.19
2022-12-25T18:54:43.506Z,102030.00
2022-12-25T18:58:45.248Z,102033.44
2022-12-25T19:02:45.205Z,102029.34
2022-12-25T19:06:44.995Z,102030.47
2022-12-25T19:10:44.413Z,102029.59
2022-12-25T19:14:47.910Z,102035.84
2022-12-25T19:18:47.648Z,102036.44
2022-12-25T19:22:46.334Z,102025.63
2022-12-25T19:26:45.545Z,102020.69
2022-12-25T19:30:46.912Z,102032.06
2022-12-25T19:34:46.245Z,102028.97
2022-12-25T19:38:45.718Z,102042.84
2022-12-25T19:42:45.017Z,102044.59
2022-12-25T19:46:45.936Z,102057.47
2022-12-25T19:50:45.117Z,102070.16
2022-12-25T19:54:44.346Z,102067.59
2022-12-25T19:58:43.889Z,102080.41
2022-12-25T20:02:45.270Z,102066.22
2022-12-25T20:06:44.631Z,102063.63
2022-12-25T20:10:45.200Z,102073.28
2022-12-25T20:14:44.550Z,102071.47
2022-12-25T20:18:45.857Z,102071.13
2022-12-25T20:22:45.119Z,102077.06
2022-12-25T20:26:47.607Z,102082.25
2022-12-25T20:30:47.104Z,102090.19
2022-12-25T20:34:48.469Z,102091.00
2022-12-25T20:38:47.688Z,102099.72
2022-12-25T20:42:49.397Z,102100.50
2022-12-25T20:46:48.717Z,102099.84
2022-12-25T20:50:50.081Z,102104.59
2022-12-25T20:54:48.936Z,102113.50
2022-12-25T20:58:48.434Z,102103.25
2022-12-25T21:02:47.905Z,102099.97
2022-12-25T21:06:49.333Z,102113.88
2022-12-25T21:10:50.219Z,102113.03
2022-12-25T21:14:49.389Z,102108.72
2022-12-25T21:18:49.124Z,102114.03
2022-12-25T21:22:50.428Z,102117.56
2022-12-25T21:26:49.685Z,102114.03
2022-12-25T21:30:49.032Z,102122.66
2022-12-25T21:34:48.314Z,102115.03
2022-12-25T21:38:53.211Z,102115.81
2022-12-25T21:42:53.878Z,102108.22
2022-12-25T21:46:53.100Z,102100.84
2022-12-25T21:51:09.441Z,102094.84
2022-12-25T21:55:11.025Z,102098.91
2022-12-25T21:59:10.551Z,102102.88
2022-12-25T22:03:09.776Z,102094.47
2022-12-25T22:07:19.639Z,102106.34
2022-12-25T22:11:37.274Z,102103.50
2022-12-25T22:15:52.971Z,102094.56
2022-12-25T22:19:52.289Z,102107.69
2022-12-25T22:23:51.540Z,102104.47
2022-12-25T22:27:53.238Z,102103.94
2022-12-25T22:31:52.459Z,102107.84
2022-12-25T22:35:51.174Z,102116.81
2022-12-25T22:39:50.462Z,102124.28
2022-12-25T22:44:16.525Z,102126.25
2022-12-25T22:48:10.868Z,102129.47
2022-12-25T22:52:09.991Z,102135.47
2022-12-25T22:56:09.991Z,102136.69
2022-12-25T23:00:15.159Z,102145.19
2022-12-25T23:04:14.598Z,102143.69
2022-12-25T23:08:13.815Z,102156.75
2022-12-25T23:12:34.160Z,102178.34
2022-12-25T23:16:35.820Z,102178.00
2022-12-25T23:21:02.906Z,102193.56
2022-12-25T23:25:18.160Z,102204.34
2022-12-25T23:29:33.870Z,102212.63
2022-12-25T23:33:35.402Z,102224.22
2022-12-25T23:37:34.073Z,102232.06
2022-12-25T23:41:33.258Z,102233.53
2022-12-25T23:45:31.965Z,102236.56
2022-12-25T23:49:33.418Z,102237.44
2022-12-25T23:53:32.690Z,102240.19
2022-12-25T23:57:31.996Z,102255.19
